Pagrindinis puslapis
METAR-TAF:

METAR-TAF

Oro uostai :

Pastas, Kolumbija

platuma: 01-25N, ilguma: 077-16W, Aukštis: 1826 m

Dabartinis oras

Ataskaita buvo paskelbta 48 minutes, ne 12:00 UTC
Ramus vėjas
Temperatūra 16°C
Drėgmė 100%
Slėgis 1023 hPa
Matomumas: 0800 m
Apsiniaukę ne aukštis 500 ft
rūkas

METAR: SKPS 281200Z 00000KT 0800 FG OVC005 16/16 A3021 REDZ RMK AD BLW MNM MET

Laikas: 07:48 (12:48 UTC)


TAF: trūkstamas

Orai ataskaitas ir orų prognozės (METAR, TAF).

turimą stotys yra geltonos ir raudonos taškus žemėlapyje.

Perkelti pele per norėdami pamatyti stoties vardą.

Tada spustelėkite, norėdami matyti oro stebėjimo ir prognozės.

Norėdami pakeisti žemėlapį: spustelėkite ant žalios mygtukų su juodo kryžiaus žemyn,; žalią mygtuką su brūkšneliu, jei norite nutolinti; arba žalių rodyklių gretimoms žemėlapius.


METAR-TAF: